Time;durP1;ratioP1;P1;durP2;ratioP2;P2;SDS_P1;SDS_P2;PMS_P1;PMS_P2;Temp;Humidity;BMP_temperature;BMP_pressure;BME280_temperature;BME280_humidity;BME280_pressure;Samples;Min_cycle;Max_cycle;Signal;HPM_P1;HPM_P2
2022/01/01 00:01:04;;;;;;;12.27;7.50;;;23.50;53.90;;;;;;6188969;28;80509;-70
2022/01/01 00:04:05;;;;;;;12.38;7.65;;;23.50;54.10;;;;;;6159549;28;83145;-72
2022/01/01 00:07:05;;;;;;;11.57;6.97;;;23.50;53.80;;;;;;6161942;28;80805;-70
2022/01/01 00:10:06;;;;;;;11.68;7.20;;;23.50;54.10;;;;;;6159530;28;80086;-72
2022/01/01 00:13:06;;;;;;;12.65;7.57;;;23.50;53.80;;;;;;6160247;28;80550;-70
2022/01/01 00:16:09;;;;;;;12.52;7.68;;;23.50;53.90;;;;;;6165032;28;81028;-71
2022/01/01 00:19:09;;;;;;;10.85;7.18;;;23.50;54.20;;;;;;6155995;28;80827;-69
2022/01/01 00:22:10;;;;;;;12.32;7.38;;;23.40;53.90;;;;;;6159713;28;82177;-69
2022/01/01 00:25:10;;;;;;;13.13;7.47;;;23.50;53.70;;;;;;6162213;28;80859;-70
2022/01/01 00:28:12;;;;;;;11.70;6.85;;;23.40;53.70;;;;;;6154848;28;80339;-71
2022/01/01 00:31:13;;;;;;;10.65;7.05;;;23.50;53.90;;;;;;6157082;28;80692;-69
2022/01/01 00:34:13;;;;;;;10.15;7.32;;;23.40;53.70;;;;;;6161076;28;81086;-71
2022/01/01 00:37:13;;;;;;;13.32;7.88;;;23.40;53.80;;;;;;6164154;28;80384;-72
2022/01/01 00:40:14;;;;;;;10.45;6.25;;;23.40;53.70;;;;;;6157245;28;80701;-71
2022/01/01 00:43:15;;;;;;;11.30;7.82;;;23.40;53.80;;;;;;6159201;28;80791;-71
2022/01/01 00:46:15;;;;;;;14.13;7.53;;;23.40;53.90;;;;;;6158781;28;87804;-72
2022/01/01 00:49:16;;;;;;;10.95;7.25;;;23.40;53.70;;;;;;6159652;28;80561;-72
2022/01/01 00:52:16;;;;;;;12.45;8.07;;;23.40;53.90;;;;;;6158900;28;80831;-71
2022/01/01 00:55:17;;;;;;;10.77;7.15;;;23.40;53.90;;;;;;6160619;28;80688;-72
2022/01/01 00:58:17;;;;;;;13.30;7.03;;;23.40;53.60;;;;;;6157737;28;82102;-71
2022/01/01 01:01:18;;;;;;;11.73;7.15;;;23.40;53.80;;;;;;6157681;28;80372;-72
2022/01/01 01:04:18;;;;;;;11.43;7.30;;;23.40;53.70;;;;;;6155763;28;80576;-71
2022/01/01 01:07:19;;;;;;;10.13;6.57;;;23.40;53.70;;;;;;6157269;28;80617;-72
2022/01/01 01:10:19;;;;;;;10.35;6.75;;;23.40;53.70;;;;;;6162457;28;80450;-67
2022/01/01 01:13:20;;;;;;;10.73;6.95;;;23.40;53.60;;;;;;6158902;28;81395;-70
2022/01/01 01:16:21;;;;;;;9.75;6.20;;;23.40;53.90;;;;;;6158782;28;80600;-70
2022/01/01 01:19:21;;;;;;;9.68;6.80;;;23.40;54.00;;;;;;6159135;28;80788;-69
2022/01/01 01:22:22;;;;;;;11.02;7.28;;;23.40;54.00;;;;;;6157979;28;80981;-71
2022/01/01 01:25:24;;;;;;;12.45;6.88;;;23.40;54.00;;;;;;6159501;28;80705;-71
2022/01/01 01:28:25;;;;;;;12.00;6.72;;;23.40;53.90;;;;;;6155697;28;80930;-72
2022/01/01 01:31:28;;;;;;;11.48;7.13;;;23.40;54.00;;;;;;6159434;28;82425;-71
2022/01/01 01:34:28;;;;;;;9.98;6.28;;;23.40;54.00;;;;;;6161097;28;80876;-71
2022/01/01 01:37:29;;;;;;;9.07;6.30;;;23.40;54.00;;;;;;6159194;28;80484;-71
2022/01/01 01:40:30;;;;;;;10.70;7.00;;;23.40;53.90;;;;;;6158036;28;81002;-72
2022/01/01 01:43:30;;;;;;;9.90;6.68;;;23.40;54.20;;;;;;6159186;28;81225;-72
2022/01/01 01:46:31;;;;;;;11.27;6.68;;;23.40;54.00;;;;;;6155857;28;80374;-72
2022/01/01 01:49:31;;;;;;;9.63;6.60;;;23.40;54.20;;;;;;6158833;28;81101;-72
2022/01/01 01:52:35;;;;;;;10.15;6.78;;;23.40;54.10;;;;;;6152764;28;81701;-71
2022/01/01 01:55:35;;;;;;;12.15;7.10;;;23.30;54.20;;;;;;6159058;28;87999;-71
2022/01/01 01:58:36;;;;;;;9.05;6.05;;;23.30;54.30;;;;;;6160590;28;80539;-71
2022/01/01 02:01:36;;;;;;;7.88;6.55;;;23.40;54.30;;;;;;6157253;28;80372;-71
2022/01/01 02:04:37;;;;;;;9.63;6.63;;;23.30;54.30;;;;;;6158817;28;80479;-71
2022/01/01 02:07:37;;;;;;;10.15;6.10;;;23.40;54.30;;;;;;6156053;28;81915;-71
2022/01/01 02:10:38;;;;;;;10.90;6.75;;;23.40;54.50;;;;;;6157516;28;81762;-71
2022/01/01 02:14:00;;;;;;;9.45;6.32;;;23.30;54.40;;;;;;6158007;28;80458;-72
2022/01/01 02:20:00;;;;;;;9.57;6.15;;;23.30;54.20;;;;;;6160977;28;80584;-72
2022/01/01 02:23:01;;;;;;;10.18;6.97;;;23.30;54.00;;;;;;6156710;28;81278;-71
2022/01/01 02:26:03;;;;;;;10.43;6.15;;;23.30;53.80;;;;;;6160187;28;81056;-71
2022/01/01 02:29:03;;;;;;;10.27;6.88;;;23.30;53.50;;;;;;6157771;28;80464;-72
2022/01/01 02:32:04;;;;;;;9.80;6.57;;;23.30;53.50;;;;;;6157401;28;80993;-72
2022/01/01 02:35:04;;;;;;;11.02;6.50;;;23.30;53.50;;;;;;6158853;28;80476;-72
2022/01/01 02:38:05;;;;;;;8.85;5.90;;;23.30;53.50;;;;;;6161574;28;80438;-72
2022/01/01 02:41:05;;;;;;;10.27;6.70;;;23.30;53.60;;;;;;6156189;28;87935;-72
2022/01/01 02:44:06;;;;;;;11.15;7.13;;;23.30;53.60;;;;;;6160342;28;81442;-72
2022/01/01 02:47:07;;;;;;;9.95;6.65;;;23.30;53.60;;;;;;6159841;28;80695;-71
2022/01/01 02:50:07;;;;;;;9.43;6.55;;;23.40;53.60;;;;;;6160550;28;82825;-71
2022/01/01 02:53:08;;;;;;;9.13;6.40;;;23.30;53.40;;;;;;6163764;28;80395;-71
2022/01/01 02:56:08;;;;;;;12.95;7.53;;;23.30;53.40;;;;;;6159473;28;81114;-71
2022/01/01 02:59:09;;;;;;;10.63;6.57;;;23.30;53.40;;;;;;6160210;28;80545;-71
2022/01/01 03:02:09;;;;;;;11.00;7.10;;;23.30;53.60;;;;;;6161894;28;80357;-71
2022/01/01 03:05:10;;;;;;;9.13;6.55;;;23.30;54.10;;;;;;6160379;28;80889;-71
2022/01/01 03:08:10;;;;;;;10.88;6.80;;;23.40;54.30;;;;;;6160199;28;86498;-71
2022/01/01 03:11:11;;;;;;;10.68;7.53;;;23.30;54.60;;;;;;6160213;28;80569;-71
2022/01/01 03:14:17;;;;;;;10.85;6.57;;;23.30;54.10;;;;;;6161542;28;80869;-71
2022/01/01 03:17:17;;;;;;;;;;;23.30;54.00;;;;;;6161600;28;81019;-72
2022/01/01 03:20:18;;;;;;;11.48;6.13;;;23.30;53.80;;;;;;6168953;28;80348;-70
2022/01/01 03:23:18;;;;;;;11.70;7.10;;;23.30;53.60;;;;;;6163877;28;80232;-71
2022/01/01 03:26:19;;;;;;;10.73;6.72;;;23.30;53.40;;;;;;6159676;28;80744;-71
2022/01/01 03:29:19;;;;;;;9.57;6.53;;;23.30;53.40;;;;;;6164112;28;80472;-72
2022/01/01 03:32:20;;;;;;;9.60;6.45;;;23.30;53.30;;;;;;6161918;28;80239;-71
2022/01/01 03:35:20;;;;;;;8.05;5.90;;;23.30;53.30;;;;;;6158760;28;86239;-71
2022/01/01 03:38:21;;;;;;;9.35;6.60;;;23.30;53.20;;;;;;6160459;28;80385;-72
2022/01/01 03:41:21;;;;;;;10.13;6.95;;;23.40;53.20;;;;;;6162680;28;80751;-72
2022/01/01 03:44:22;;;;;;;10.95;6.68;;;23.40;53.30;;;;;;6162000;28;80647;-71
2022/01/01 03:47:22;;;;;;;8.65;6.40;;;23.40;53.20;;;;;;6158796;28;81539;-71
2022/01/01 03:50:23;;;;;;;10.75;6.78;;;23.50;53.10;;;;;;6164055;28;80326;-71
2022/01/01 03:53:25;;;;;;;8.27;6.47;;;23.50;53.00;;;;;;6172300;28;80408;-71
2022/01/01 03:56:25;;;;;;;9.13;6.30;;;23.40;52.80;;;;;;6153811;28;80392;-71
2022/01/01 03:59:26;;;;;;;9.77;6.57;;;23.50;52.90;;;;;;6159573;28;81092;-71
2022/01/01 04:02:26;;;;;;;8.55;5.50;;;23.50;52.80;;;;;;6158322;28;80333;-71
2022/01/01 04:05:27;;;;;;;8.80;5.70;;;23.50;52.70;;;;;;6160019;28;81509;-72
2022/01/01 04:08:30;;;;;;;9.57;6.50;;;23.50;52.70;;;;;;6159284;28;80575;-72
2022/01/01 04:11:31;;;;;;;10.80;6.18;;;23.50;52.40;;;;;;6165018;28;80105;-72
2022/01/01 04:14:31;;;;;;;9.65;6.32;;;23.50;52.30;;;;;;6160614;28;80665;-72
2022/01/01 04:17:36;;;;;;;6.63;5.22;;;23.50;52.30;;;;;;6156630;28;80956;-72
2022/01/01 04:20:36;;;;;;;8.63;5.82;;;23.50;52.30;;;;;;6160484;28;81665;-71
2022/01/01 04:23:37;;;;;;;8.77;5.93;;;23.60;52.20;;;;;;6158814;28;83260;-72
2022/01/01 04:26:38;;;;;;;8.02;5.90;;;23.60;52.30;;;;;;6160642;28;80333;-71
2022/01/01 04:29:40;;;;;;;7.57;5.32;;;23.60;52.30;;;;;;6162371;28;80865;-71
2022/01/01 04:32:41;;;;;;;9.45;6.03;;;23.60;52.50;;;;;;6192140;28;80374;-71
2022/01/01 04:35:42;;;;;;;9.32;5.72;;;23.60;52.50;;;;;;6156754;28;80334;-71
2022/01/01 04:38:44;;;;;;;7.05;5.38;;;23.60;52.60;;;;;;6161937;28;81131;-71
2022/01/01 04:41:45;;;;;;;6.88;4.75;;;23.60;52.50;;;;;;6153235;28;80457;-71
2022/01/01 04:44:45;;;;;;;8.38;5.50;;;23.60;52.70;;;;;;6159129;28;82364;-71
2022/01/01 04:47:46;;;;;;;7.95;5.53;;;23.60;52.80;;;;;;6158892;28;80437;-70
2022/01/01 04:50:46;;;;;;;10.00;5.60;;;23.60;52.90;;;;;;6162417;28;83099;-70
2022/01/01 04:53:47;;;;;;;9.00;5.20;;;23.60;53.00;;;;;;6155299;28;80395;-71
2022/01/01 04:56:48;;;;;;;7.72;5.32;;;23.60;53.10;;;;;;6155242;28;80499;-71
2022/01/01 04:59:49;;;;;;;8.73;5.28;;;23.60;53.10;;;;;;6159318;28;81493;-70
2022/01/01 05:02:49;;;;;;;6.40;4.50;;;23.60;53.40;;;;;;6158357;28;80874;-73
2022/01/01 05:05:50;;;;;;;7.38;4.93;;;23.60;53.90;;;;;;6161220;28;80639;-72
2022/01/01 05:08:50;;;;;;;7.18;4.28;;;23.60;53.20;;;;;;6160188;28;81189;-74
2022/01/01 05:11:51;;;;;;;7.28;4.82;;;23.60;53.20;;;;;;6160732;28;82617;-73
2022/01/01 05:14:51;;;;;;;6.63;4.40;;;23.60;53.20;;;;;;6159932;28;80491;-72
2022/01/01 05:17:52;;;;;;;8.05;4.55;;;23.70;53.20;;;;;;6150242;28;80623;-73
2022/01/01 05:20:52;;;;;;;5.53;3.67;;;23.60;53.10;;;;;;6155358;28;81254;-73
2022/01/01 05:23:53;;;;;;;6.50;4.32;;;23.70;53.10;;;;;;6156014;28;80920;-70
2022/01/01 05:26:53;;;;;;;6.25;4.13;;;23.70;53.10;;;;;;6158159;28;80697;-70
2022/01/01 05:29:54;;;;;;;7.10;4.00;;;23.70;53.10;;;;;;6160105;28;80543;-70
2022/01/01 05:32:54;;;;;;;4.55;3.42;;;23.70;53.10;;;;;;6159703;28;82685;-71
2022/01/01 05:35:55;;;;;;;5.32;3.45;;;23.70;53.10;;;;;;6156184;28;80441;-72
2022/01/01 05:38:55;;;;;;;6.88;4.13;;;23.70;53.10;;;;;;6157182;28;82409;-70
2022/01/01 05:41:56;;;;;;;6.38;4.00;;;23.70;53.20;;;;;;6150362;28;81689;-71
2022/01/01 05:44:56;;;;;;;4.35;3.15;;;23.70;53.50;;;;;;6160615;28;81789;-72
2022/01/01 05:47:57;;;;;;;5.13;3.47;;;23.70;53.30;;;;;;6159103;28;80810;-71
2022/01/01 05:50:57;;;;;;;4.75;3.10;;;23.70;53.60;;;;;;6159029;28;80423;-70
2022/01/01 05:53:58;;;;;;;8.00;2.53;;;23.60;54.70;;;;;;6159059;28;81690;-70
2022/01/01 05:57:00;;;;;;;6.53;2.40;;;23.60;56.60;;;;;;6157668;28;81069;-71
2022/01/01 06:00:01;;;;;;;4.60;1.92;;;23.50;57.80;;;;;;6149628;28;80793;-71
2022/01/01 06:03:01;;;;;;;3.65;2.13;;;23.50;58.40;;;;;;6157466;28;80328;-70
2022/01/01 06:06:02;;;;;;;2.33;1.85;;;23.50;58.90;;;;;;6160847;28;80922;-67
2022/01/01 06:09:02;;;;;;;2.45;2.00;;;23.50;59.50;;;;;;6158695;28;81510;-71
2022/01/01 06:12:03;;;;;;;2.20;1.80;;;23.50;60.30;;;;;;6158389;28;83326;-70
2022/01/01 06:15:03;;;;;;;2.05;1.60;;;23.50;61.70;;;;;;6158467;28;80726;-72
2022/01/01 06:18:04;;;;;;;1.55;1.45;;;23.50;61.70;;;;;;6159456;28;80652;-71
2022/01/01 06:21:04;;;;;;;1.67;1.20;;;23.50;62.30;;;;;;6154475;28;80444;-71
2022/01/01 06:24:05;;;;;;;2.60;1.67;;;23.40;63.30;;;;;;6159693;28;80953;-69
2022/01/01 06:27:05;;;;;;;2.40;1.50;;;23.40;64.00;;;;;;6156443;28;81019;-70
2022/01/01 06:30:06;;;;;;;4.95;2.03;;;23.40;64.90;;;;;;6159643;28;80856;-68
2022/01/01 06:33:06;;;;;;;1.52;1.42;;;23.40;65.70;;;;;;6155786;28;80296;-70
2022/01/01 06:36:11;;;;;;;1.75;1.52;;;23.40;65.70;;;;;;6160177;28;81829;-70
2022/01/01 06:39:12;;;;;;;1.70;1.40;;;23.50;66.30;;;;;;6153536;28;80458;-72
2022/01/01 06:42:12;;;;;;;1.98;1.40;;;23.50;66.90;;;;;;6158665;28;80441;-68
2022/01/01 06:45:13;;;;;;;1.48;1.10;;;23.50;67.10;;;;;;6159065;28;80675;-68
2022/01/01 06:48:13;;;;;;;1.80;1.45;;;23.40;66.90;;;;;;6158613;28;81730;-70
2022/01/01 06:51:14;;;;;;;1.40;1.30;;;23.50;67.10;;;;;;6153823;28;80433;-69
2022/01/01 06:54:15;;;;;;;1.98;1.35;;;23.60;66.70;;;;;;6157848;28;80874;-72
2022/01/01 06:57:15;;;;;;;1.83;1.30;;;23.60;66.30;;;;;;6154681;28;80756;-69
2022/01/01 07:00:16;;;;;;;1.52;1.38;;;23.70;65.50;;;;;;6158811;28;80854;-69
2022/01/01 07:03:16;;;;;;;7.05;1.40;;;23.70;65.50;;;;;;6189640;28;83445;-69
2022/01/01 07:06:17;;;;;;;2.22;1.67;;;23.70;65.30;;;;;;6156895;28;80776;-69
2022/01/01 07:09:17;;;;;;;2.28;1.75;;;23.70;65.20;;;;;;6153865;28;81902;-70
2022/01/01 07:12:18;;;;;;;2.85;1.80;;;23.70;64.90;;;;;;6152920;28;80472;-68
2022/01/01 07:15:18;;;;;;;2.78;1.90;;;23.70;65.10;;;;;;6155930;28;82062;-69
2022/01/01 07:18:19;;;;;;;4.10;2.00;;;23.70;65.50;;;;;;6167543;28;80921;-69
2022/01/01 07:21:19;;;;;;;2.20;2.00;;;23.70;65.20;;;;;;6160809;28;80284;-70
2022/01/01 07:24:20;;;;;;;3.38;2.28;;;23.70;64.90;;;;;;6184592;28;83184;-69
2022/01/01 07:27:20;;;;;;;4.05;2.65;;;23.70;65.20;;;;;;6152419;28;80814;-69
2022/01/01 07:30:21;;;;;;;2.83;2.25;;;23.60;64.20;;;;;;6150209;28;81417;-69
2022/01/01 07:33:21;;;;;;;4.07;2.63;;;23.70;64.20;;;;;;6151502;28;82362;-69
2022/01/01 07:36:22;;;;;;;5.55;2.30;;;23.70;63.80;;;;;;6157068;28;80571;-68
2022/01/01 07:39:22;;;;;;;7.38;3.40;;;23.70;63.50;;;;;;6152516;28;80696;-70
2022/01/01 07:42:23;;;;;;;3.90;2.85;;;23.70;62.90;;;;;;6153507;28;81844;-69
2022/01/01 07:45:23;;;;;;;3.70;2.65;;;23.70;62.30;;;;;;6153668;28;80455;-70
2022/01/01 07:48:24;;;;;;;3.67;2.72;;;23.80;62.00;;;;;;6151882;28;80504;-70
2022/01/01 07:51:24;;;;;;;4.00;2.60;;;23.70;62.30;;;;;;6154627;28;80382;-69
2022/01/01 07:54:25;;;;;;;4.15;2.60;;;23.80;61.30;;;;;;6159425;28;80729;-68
2022/01/01 07:57:26;;;;;;;4.03;2.67;;;23.70;61.20;;;;;;6158816;28;81983;-69
2022/01/01 08:00:26;;;;;;;4.70;2.70;;;23.80;60.90;;;;;;6160276;28;81508;-69
2022/01/01 08:03:27;;;;;;;5.35;3.20;;;23.80;60.50;;;;;;6157859;28;82339;-70
2022/01/01 08:06:27;;;;;;;4.78;2.90;;;23.80;60.00;;;;;;6160287;28;80540;-70
2022/01/01 08:09:28;;;;;;;5.20;3.05;;;23.80;59.80;;;;;;6160224;28;80245;-70
2022/01/01 08:12:28;;;;;;;9.55;3.15;;;23.80;59.60;;;;;;6160377;28;82582;-71
2022/01/01 08:15:29;;;;;;;6.38;3.15;;;23.80;59.60;;;;;;6160410;28;80627;-69
2022/01/01 08:18:29;;;;;;;5.03;2.90;;;23.80;60.00;;;;;;6161399;28;83347;-70
2022/01/01 08:21:30;;;;;;;4.13;2.70;;;23.80;59.90;;;;;;6162945;28;80342;-69
2022/01/01 08:24:30;;;;;;;6.18;3.40;;;23.80;59.70;;;;;;6160797;28;82802;-69
2022/01/01 08:27:31;;;;;;;134.90;68.93;;;23.70;59.60;;;;;;6162940;28;80783;-68
2022/01/01 08:30:31;;;;;;;331.75;169.02;;;23.70;59.50;;;;;;6159935;28;83893;-69
2022/01/01 08:33:32;;;;;;;448.42;237.10;;;23.70;59.90;;;;;;6146885;28;86239;-70
2022/01/01 08:36:32;;;;;;;454.25;231.55;;;23.70;59.90;;;;;;6152673;28;86077;-70
2022/01/01 08:39:33;;;;;;;361.15;188.38;;;23.70;60.10;;;;;;6155193;28;88001;-72
2022/01/01 08:42:34;;;;;;;333.77;182.15;;;23.80;60.00;;;;;;6155136;28;85561;-73
2022/01/01 08:45:34;;;;;;;286.98;137.38;;;23.80;59.90;;;;;;6150584;28;86007;-72
2022/01/01 08:48:35;;;;;;;364.20;185.77;;;23.70;59.80;;;;;;6153894;28;85460;-72
2022/01/01 08:51:35;;;;;;;433.63;228.13;;;23.70;60.40;;;;;;6148848;28;86960;-70
2022/01/01 08:54:36;;;;;;;509.90;284.95;;;23.70;60.00;;;;;;6151835;28;86019;-72
2022/01/01 08:57:37;;;;;;;506.75;276.65;;;23.70;60.20;;;;;;6151494;28;85769;-73
2022/01/01 09:00:37;;;;;;;420.10;227.40;;;23.70;60.10;;;;;;6151468;28;86750;-71
2022/01/01 09:03:38;;;;;;;378.40;201.38;;;23.70;60.20;;;;;;6152908;28;85540;-74
2022/01/01 09:06:38;;;;;;;364.48;191.68;;;23.80;59.80;;;;;;6154760;28;85908;-75
2022/01/01 09:09:39;;;;;;;291.63;150.45;;;23.80;59.90;;;;;;6154258;28;85857;-70
2022/01/01 09:12:40;;;;;;;272.17;141.95;;;23.80;59.60;;;;;;6152199;28;85467;-72
2022/01/01 09:15:40;;;;;;;263.92;135.57;;;23.80;60.20;;;;;;6150067;28;86506;-70
2022/01/01 09:18:41;;;;;;;230.40;120.75;;;23.80;60.70;;;;;;6153292;28;85757;-72
2022/01/01 09:21:41;;;;;;;221.27;110.90;;;23.90;60.80;;;;;;6150847;28;86355;-74
2022/01/01 09:24:42;;;;;;;219.07;107.28;;;23.90;60.70;;;;;;6150944;28;85823;-72
2022/01/01 09:27:42;;;;;;;197.25;102.60;;;23.90;60.90;;;;;;6152189;28;85727;-70
2022/01/01 09:30:43;;;;;;;186.25;94.80;;;23.90;61.10;;;;;;6151317;28;85689;-72
2022/01/01 09:33:43;;;;;;;181.57;90.68;;;23.90;61.00;;;;;;6153228;28;86048;-71
2022/01/01 09:36:46;;;;;;;170.15;85.72;;;23.90;61.90;;;;;;6151175;28;83973;-73
2022/01/01 09:39:46;;;;;;;175.70;85.50;;;23.90;63.00;;;;;;6154355;28;85481;-71
2022/01/01 09:42:47;;;;;;;164.13;81.20;;;23.90;62.40;;;;;;6154642;28;83773;-70
2022/01/01 09:45:47;;;;;;;161.80;79.75;;;23.90;64.00;;;;;;6159286;28;83210;-71
2022/01/01 09:48:48;;;;;;;153.10;76.63;;;23.90;64.70;;;;;;6157122;28;83048;-71
2022/01/01 09:51:48;;;;;;;146.80;76.55;;;24.00;66.10;;;;;;6154074;28;83752;-71
2022/01/01 09:54:49;;;;;;;143.52;73.13;;;24.00;67.50;;;;;;6154907;28;83289;-73
2022/01/01 09:57:49;;;;;;;148.88;75.97;;;24.00;69.00;;;;;;6154222;28;83170;-72
2022/01/01 10:00:50;;;;;;;146.35;76.97;;;24.00;71.00;;;;;;6155704;28;85888;-73
2022/01/01 10:03:51;;;;;;;143.13;74.80;;;24.00;73.20;;;;;;6154507;28;85057;-73
2022/01/01 10:06:51;;;;;;;141.43;70.82;;;24.00;73.00;;;;;;6151525;28;87733;-70
2022/01/01 10:09:51;;;;;;;140.75;73.95;;;24.00;72.20;;;;;;6159891;28;83146;-72
2022/01/01 10:12:52;;;;;;;136.57;70.80;;;24.10;71.20;;;;;;6155825;28;83520;-70
2022/01/01 10:15:53;;;;;;;139.85;74.30;;;24.00;74.80;;;;;;6156165;28;83646;-71
2022/01/01 10:18:54;;;;;;;127.70;71.10;;;24.00;77.40;;;;;;6150542;28;83862;-69
2022/01/01 10:21:54;;;;;;;141.63;72.95;;;24.10;74.90;;;;;;6154178;28;84505;-68
2022/01/01 10:28:15;;;;;;;117.15;59.78;;;24.10;74.80;;;;;;6159023;28;83006;-68
2022/01/01 10:31:15;;;;;;;93.78;49.03;;;23.90;71.20;;;;;;6154509;28;84020;-68
2022/01/01 10:34:16;;;;;;;70.82;35.30;;;23.60;70.10;;;;;;6155095;28;86055;-68
2022/01/01 10:37:16;;;;;;;52.22;29.10;;;23.50;67.00;;;;;;6150818;28;83461;-68
2022/01/01 10:40:17;;;;;;;36.85;22.65;;;23.10;66.80;;;;;;6156855;28;83745;-75
2022/01/01 10:43:17;;;;;;;35.67;19.67;;;23.00;65.30;;;;;;6157504;28;83349;-71
2022/01/01 10:46:19;;;;;;;34.70;18.23;;;22.70;65.60;;;;;;6152653;28;83179;-73
2022/01/01 10:49:29;;;;;;;29.33;16.08;;;22.60;65.00;;;;;;6168356;28;84642;-71
2022/01/01 10:52:32;;;;;;;28.27;15.55;;;22.50;63.90;;;;;;6165605;28;85869;-69
2022/01/01 10:55:33;;;;;;;29.67;15.13;;;22.60;64.60;;;;;;6158339;28;83640;-69
2022/01/01 10:58:35;;;;;;;23.13;13.30;;;22.50;64.10;;;;;;6158179;28;83553;-68
2022/01/01 11:01:39;;;;;;;20.25;13.23;;;22.50;63.80;;;;;;6158260;28;84150;-69
2022/01/01 11:04:39;;;;;;;25.03;12.57;;;22.60;63.40;;;;;;6158361;28;84491;-67
2022/01/01 11:07:40;;;;;;;23.75;12.80;;;22.70;63.50;;;;;;6159990;28;84246;-64
2022/01/01 11:10:40;;;;;;;20.63;11.73;;;22.90;62.30;;;;;;6157966;28;83067;-65
2022/01/01 11:13:41;;;;;;;17.42;11.05;;;22.90;62.10;;;;;;6161152;28;83104;-65
2022/01/01 11:16:42;;;;;;;15.00;9.93;;;23.00;60.60;;;;;;6156889;28;83413;-68
2022/01/01 11:19:42;;;;;;;15.77;8.65;;;23.10;60.50;;;;;;6161522;28;82987;-66
2022/01/01 11:22:43;;;;;;;15.20;8.68;;;23.10;60.80;;;;;;6161879;28;80550;-65
2022/01/01 11:25:44;;;;;;;15.43;8.52;;;23.10;62.20;;;;;;6159787;28;81443;-64
2022/01/01 11:28:44;;;;;;;15.15;7.35;;;23.20;61.40;;;;;;6159926;28;81715;-64
2022/01/01 11:31:46;;;;;;;13.90;7.47;;;23.40;61.20;;;;;;6166044;28;81927;-64
2022/01/01 11:34:47;;;;;;;14.82;8.32;;;23.40;61.00;;;;;;6167672;28;81520;-63
2022/01/01 11:37:48;;;;;;;18.23;8.38;;;23.50;60.70;;;;;;6159614;28;80358;-64
2022/01/01 11:40:48;;;;;;;18.60;7.80;;;23.60;60.20;;;;;;6160392;28;81663;-69
2022/01/01 11:43:51;;;;;;;12.95;7.35;;;23.70;60.00;;;;;;6160248;28;80251;-65
2022/01/01 11:46:52;;;;;;;11.30;6.53;;;23.70;59.40;;;;;;6162254;28;80314;-65
2022/01/01 11:49:53;;;;;;;11.30;6.43;;;23.70;59.00;;;;;;6160076;28;80864;-64
2022/01/01 11:52:53;;;;;;;16.20;7.53;;;23.80;59.00;;;;;;6161025;28;81707;-64
2022/01/01 11:55:54;;;;;;;13.00;7.22;;;23.80;58.30;;;;;;6161742;28;80577;-67
2022/01/01 11:58:54;;;;;;;9.95;6.15;;;23.80;58.00;;;;;;6161386;28;81265;-63
2022/01/01 12:01:55;;;;;;;9.40;5.78;;;23.80;57.90;;;;;;6160668;28;82394;-64
2022/01/01 12:04:55;;;;;;;11.02;5.68;;;23.90;58.00;;;;;;6161072;28;80410;-65
2022/01/01 12:07:56;;;;;;;8.48;5.25;;;23.90;58.00;;;;;;6161598;27;81450;-66
2022/01/01 12:10:56;;;;;;;10.25;5.18;;;23.90;58.30;;;;;;6160906;28;80400;-63
2022/01/01 12:13:57;;;;;;;10.15;5.60;;;24.00;58.40;;;;;;6160812;28;82579;-62
2022/01/01 12:16:58;;;;;;;10.10;5.32;;;24.00;58.10;;;;;;6161459;28;80811;-62
2022/01/01 12:19:58;;;;;;;10.55;5.70;;;24.00;58.00;;;;;;6161040;28;81011;-63
2022/01/01 12:22:59;;;;;;;11.57;5.85;;;24.00;57.70;;;;;;6158925;28;80423;-64
2022/01/01 12:26:00;;;;;;;10.40;5.80;;;24.00;57.50;;;;;;6160642;28;80861;-64
2022/01/01 12:29:00;;;;;;;9.30;5.55;;;24.00;57.30;;;;;;6160881;28;81406;-66
2022/01/01 12:32:02;;;;;;;11.98;5.63;;;24.00;57.90;;;;;;6155831;28;87402;-65
2022/01/01 12:35:02;;;;;;;16.08;5.72;;;24.00;58.70;;;;;;6166935;28;80434;-66
2022/01/01 12:38:03;;;;;;;11.55;5.22;;;24.10;59.00;;;;;;6159721;28;80566;-66
2022/01/01 12:41:04;;;;;;;13.15;6.20;;;24.10;59.40;;;;;;6159653;28;80645;-65
2022/01/01 12:44:04;;;;;;;10.18;5.65;;;24.10;59.70;;;;;;6160814;28;80411;-65
2022/01/01 12:47:05;;;;;;;12.57;6.07;;;24.20;59.90;;;;;;6160473;28;80387;-64
2022/01/01 12:50:05;;;;;;;11.32;5.97;;;24.20;60.20;;;;;;6153000;28;81594;-65
2022/01/01 12:53:06;;;;;;;11.82;5.68;;;24.20;59.90;;;;;;6161354;28;83591;-64
2022/01/01 12:56:06;;;;;;;15.15;6.15;;;24.10;60.20;;;;;;6152276;28;80378;-64
2022/01/01 12:59:08;;;;;;;10.63;6.28;;;24.10;60.20;;;;;;6161319;28;80692;-63
2022/01/01 13:02:09;;;;;;;11.73;5.63;;;24.10;60.00;;;;;;6159578;28;81668;-65
2022/01/01 13:05:10;;;;;;;14.13;6.60;;;24.10;60.50;;;;;;6160137;28;82366;-63
2022/01/01 13:08:11;;;;;;;8.88;5.18;;;24.10;61.40;;;;;;6157619;28;87422;-63
2022/01/01 13:11:11;;;;;;;10.40;6.43;;;24.00;62.00;;;;;;6158671;28;80280;-64
2022/01/01 13:14:13;;;;;;;23.23;6.47;;;24.10;63.00;;;;;;6159541;28;80748;-64
2022/01/01 13:17:14;;;;;;;12.55;6.28;;;24.00;63.30;;;;;;6152777;28;80299;-64
2022/01/01 13:20:14;;;;;;;14.32;5.55;;;24.00;63.70;;;;;;6154192;28;80569;-65
2022/01/01 13:23:17;;;;;;;10.18;5.63;;;24.00;64.00;;;;;;6159060;28;80377;-63
2022/01/01 13:26:18;;;;;;;9.98;5.82;;;24.10;64.20;;;;;;6159840;28;80562;-64
2022/01/01 13:29:20;;;;;;;15.55;5.45;;;24.10;64.70;;;;;;6159194;28;81492;-62
2022/01/01 13:32:20;;;;;;;16.73;5.38;;;24.10;65.20;;;;;;6158430;28;83290;-65
2022/01/01 13:35:21;;;;;;;10.93;5.88;;;24.00;65.50;;;;;;6171853;28;82698;-64
2022/01/01 13:38:21;;;;;;;8.18;5.55;;;24.00;65.80;;;;;;6156935;28;80853;-65
2022/01/01 13:41:22;;;;;;;8.93;5.10;;;24.00;66.60;;;;;;6159550;28;81529;-65
2022/01/01 13:44:23;;;;;;;10.00;4.45;;;24.00;67.30;;;;;;6154304;28;81481;-66
2022/01/01 13:47:29;;;;;;;8.55;5.03;;;24.00;67.00;;;;;;6156123;28;80598;-65
2022/01/01 13:50:31;;;;;;;7.05;4.35;;;24.00;66.60;;;;;;6156058;28;80773;-65
2022/01/01 13:53:31;;;;;;;11.25;5.32;;;24.00;67.60;;;;;;6159636;28;81056;-65
2022/01/01 13:56:32;;;;;;;11.65;5.20;;;24.00;67.70;;;;;;6159337;28;80857;-63
2022/01/01 13:59:34;;;;;;;24.13;4.70;;;23.90;67.20;;;;;;6158033;28;83469;-62
2022/01/01 14:02:34;;;;;;;16.58;4.90;;;24.00;67.40;;;;;;6157914;28;81880;-65
2022/01/01 14:05:35;;;;;;;8.80;4.13;;;24.00;67.40;;;;;;6155855;28;82126;-67
2022/01/01 14:08:35;;;;;;;5.05;3.50;;;23.90;68.60;;;;;;6156660;28;82021;-65
2022/01/01 14:11:36;;;;;;;6.07;2.80;;;23.80;70.60;;;;;;6148900;28;81440;-63
2022/01/01 14:14:36;;;;;;;6.25;2.80;;;23.70;72.60;;;;;;6154045;28;81031;-66
2022/01/01 14:17:37;;;;;;;6.00;2.13;;;23.70;73.10;;;;;;6156478;28;80590;-64
2022/01/01 14:20:37;;;;;;;4.10;2.45;;;23.60;73.50;;;;;;6155865;28;82442;-64
2022/01/01 14:23:39;;;;;;;3.85;2.25;;;23.60;73.60;;;;;;6157640;28;81656;-64
2022/01/01 14:26:40;;;;;;;3.13;2.25;;;23.60;73.20;;;;;;6156386;28;81245;-63
2022/01/01 14:29:40;;;;;;;3.22;2.38;;;23.60;72.60;;;;;;6159321;28;81496;-61
2022/01/01 14:32:42;;;;;;;6.15;2.67;;;23.60;72.30;;;;;;6162353;28;80845;-62
2022/01/01 14:35:43;;;;;;;4.65;2.33;;;23.50;71.30;;;;;;6162774;28;80476;-64
2022/01/01 14:38:43;;;;;;;4.55;2.88;;;23.50;71.00;;;;;;6160361;28;80831;-63
2022/01/01 14:41:44;;;;;;;4.22;2.40;;;23.50;70.40;;;;;;6162409;28;80364;-62
2022/01/01 14:44:45;;;;;;;5.07;1.95;;;23.60;70.20;;;;;;6162506;28;80452;-63
2022/01/01 14:47:45;;;;;;;4.22;2.20;;;23.50;70.10;;;;;;6161797;28;80624;-63
2022/01/01 14:50:46;;;;;;;2.95;1.98;;;23.60;69.80;;;;;;6162854;28;80356;-64
2022/01/01 14:53:47;;;;;;;2.60;2.05;;;23.60;69.30;;;;;;6163853;28;81614;-64
2022/01/01 14:56:47;;;;;;;6.70;2.47;;;23.60;68.80;;;;;;6159976;28;81902;-63
2022/01/01 14:59:48;;;;;;;3.20;1.90;;;23.60;68.50;;;;;;6162875;28;80490;-63
2022/01/01 15:02:48;;;;;;;4.32;2.17;;;23.60;68.50;;;;;;6162437;28;82778;-62
2022/01/01 15:05:50;;;;;;;4.55;2.17;;;23.60;67.90;;;;;;6162060;28;80631;-64
2022/01/01 15:08:51;;;;;;;3.20;1.90;;;23.70;67.20;;;;;;6161537;28;80520;-65
2022/01/01 15:11:51;;;;;;;3.50;2.20;;;23.80;66.40;;;;;;6152614;28;81214;-64
2022/01/01 15:14:52;;;;;;;3.53;2.20;;;23.80;65.70;;;;;;6161391;28;81899;-63
2022/01/01 15:17:53;;;;;;;7.70;3.10;;;23.80;65.20;;;;;;6161298;28;81268;-63
2022/01/01 15:20:53;;;;;;;4.72;2.47;;;23.80;65.50;;;;;;6162040;28;81303;-64
2022/01/01 15:23:54;;;;;;;9.68;3.90;;;23.80;65.50;;;;;;6160853;28;82001;-64
2022/01/01 15:26:54;;;;;;;4.72;3.28;;;23.80;65.70;;;;;;6158736;28;81109;-64
2022/01/01 15:33:20;;;;;;;6.65;3.70;;;23.90;64.60;;;;;;6159931;28;80689;-64
2022/01/01 15:36:28;;;;;;;9.60;3.35;;;23.90;64.60;;;;;;6159584;28;80522;-66
2022/01/01 15:39:31;;;;;;;5.85;3.45;;;23.90;64.40;;;;;;6159230;28;82299;-67